Terminal Aerodrome Forecast
Issued by NWS Cleveland, OH

Home | Current Version | Previous Version | Graphics & Text | Print | Product List | Glossary Off
Versions: 1 2 3 4 5 6 7 8 9 10 11 12 13 14 15 16 17 18 19 20 21

000
FTUS41 KCLE 281133
TAFCAK
TAF
KCAK 281133Z 2812/2912 10004KT P6SM SCT025 BKN060
      TEMPO 2814/2816 BKN025
     FM281600 17006KT P6SM VCTS SCT030CB OVC035
      TEMPO 2816/2818 5SM -TSRA BR BKN030CB
     FM282000 19011KT P6SM VCTS BKN035CB BKN050
      TEMPO 2900/2903 3SM -TSRA BR BKN035CB
     FM290300 25010KT P6SM VCSH BKN035 OVC050
     FM290600 25010KT P6SM SCT035 BKN150=

USA.gov is the U.S. government's official web portal to all federal, state and local government web resources and services.